Terminal Aerodrome Forecast
Issued by NWS

Home | Current Version | Previous Version | Text Only | Print | Product List | Glossary On
Versions: 1 2 3 4 5 6 7 8 9 10 11 12 13
000
FTUS45 KTFX 202300
TAFGTF
TAF
KGTF 202324Z 2100/2124 22012G20KT P6SM SCT080 OVC120
     FM210700 22015G22KT P6SM SCT040 BKN080
     FM211800 25022G30KT P6SM VCSH OVC080=

USA.gov is the U.S. government's official web portal to all federal, state and local government web resources and services.